• Join FlightAware (Why Join?)
  • Login
  • US Flag 
07:59PM EDT


 

Airport Tracker/Info


-or-


 

Live Flight TrackerFlight Track Log ✈ KAP5 ✈ 23-Jun-2013 ✈ KBOS - KALB

Flight Track Log - Related Links

Times and Time Zones

All times are in EDT time to prevent confusion due to time zone crossing. See the KAP5 flight status page for this flight to view local times or setup timezone preferences in your user account.

Time Position Orientation Groundspeed Altitude Reporting Facility
EDT Latitude Longitude Course Direction KTS MPH feet Rate Location/Type
05:27PM 42.3667 -71.0167 236° Southwest 107 123 600  Level KA90
05:28PM 42.3500 -71.0500 236° Southwest 95 109 1,800 960 Climbing KA90
05:29PM 42.3500 -71.1000 270° West 123 142 2,700 900 Climbing KA90
05:30PM 42.3500 -71.1500 270° West 123 142 3,700 900 Climbing KA90
05:31PM 42.3500 -71.2000 270° West 125 144 4,500 780 Climbing KA90
05:32PM 42.3333 -71.2500 246° West 126 145 5,300 660 Climbing KA90
05:33PM 42.3333 -71.2833 270° West 119 137 5,900 540 Climbing KA90
05:34PM 42.3333 -71.3333 270° West 117 135 6,400 480 Climbing KA90
05:35PM 42.3167 -71.3833 246° West 125 144 6,900 420 Climbing KA90
05:36PM 42.3167 -71.4167 270° West 129 148 7,300 420 Climbing KA90
05:37PM 42.3167 -71.4833 270° West 134 154 7,800 420 Climbing KA90
05:38PM 42.3028 -71.5108 236° Southwest 137 158 8,000 120 Climbing Boston Center
05:38PM 42.2989 -71.5447 261° West 148 170 8,000 -120 Level Boston Center
05:39PM 42.2911 -71.6067 260° West 164 189 7,900  Descending Boston Center
05:40PM 42.2853 -71.6711 263° West 167 192 8,000  Climbing Boston Center
05:41PM 42.2772 -71.7303 260° West 166 191 8,000  Level Boston Center
05:42PM 42.2714 -71.7864 262° West 166 191 8,000  Level Boston Center
05:43PM 42.2675 -71.8594 266° West 168 193 8,000  Level Boston Center
05:44PM 42.2742 -71.9183 279° West 166 191 8,000  Level Boston Center
05:45PM 42.2722 -71.9772 267° West 155 178 8,000  Level Boston Center
05:46PM 42.2706 -72.0333 268° West 152 175 8,000  Level Boston Center
05:47PM 42.2728 -72.0950 273° West 154 177 8,000  Level Boston Center
05:48PM 42.2750 -72.1539 273° West 152 175 8,000  Level Boston Center
05:49PM 42.2750 -72.2100 270° West 154 177 8,000  Level Boston Center
05:50PM 42.2772 -72.2689 273° West 153 176 8,000  Level Boston Center
05:51PM 42.2775 -72.3278 270° West 154 177 8,000  Level Boston Center
05:52PM 42.2983 -72.3783 299° West 155 178 8,000  Level Boston Center
05:53PM 42.3150 -72.4317 293° West 153 176 8,000  Level Boston Center
05:55PM 42.3294 -72.4878 289° West 150 173 8,000  Level Boston Center
05:56PM 42.3483 -72.5383 297° West 151 174 8,000 -60 Level Boston Center
05:56PM 42.3650 -72.5778 300° West 151 174 7,900 -120 Descending Boston Center
05:57PM 42.3794 -72.6200 295° West 150 173 7,900  Level Boston Center
05:58PM 42.3961 -72.6819 290° West 147 169 7,900  Level Boston Center
05:59PM 42.4125 -72.7297 295° West 145 167 7,900  Level Boston Center
06:00PM 42.4250 -72.7833 288° West 151 174 7,900  Level Boston Center
06:01PM 42.4456 -72.8369 297° West 147 169 7,900  Level Boston Center
06:02PM 42.4600 -72.8847 292° West 145 167 7,900  Level Boston Center
06:03PM 42.4783 -72.9467 292° West 154 177 7,900  Level Boston Center
06:04PM 42.4969 -72.9975 296° West 156 180 7,900  Level Boston Center
06:05PM 42.5133 -73.0486 294° West 149 171 7,900 -60 Level Boston Center
06:06PM 42.5278 -73.0994 291° West 146 168 7,800 -120 Descending Boston Center
06:07PM 42.5461 -73.1531 295° West 150 173 7,700 -300 Descending Boston Center
06:08PM 42.5644 -73.2097 294° West 164 189 7,200 -480 Descending Boston Center
06:09PM 42.5789 -73.2606 291° West 165 190 6,800 -480 Descending Boston Center
06:10PM 42.5992 -73.3200 295° West 167 192 6,300 -600 Descending Boston Center
06:11PM 42.6175 -73.3794 293° West 164 189 5,700 -660 Descending Boston Center
06:12PM 42.6294 -73.4219 291° West 165 190 5,200 -600 Descending Boston Center
06:13PM 42.6500 -73.4817 295° West 167 192 4,700 -540 Descending Boston Center
06:14PM 42.6764 -73.5331 305° West 166 191 4,200 -600 Descending Boston Center
06:15PM 42.7050 -73.5900 304° West 171 197 3,600 -720 Descending Boston Center
06:16PM 42.7336 -73.6528 302° West 176 203 2,700 -900 Descending Boston Center
06:17PM 42.7497 -73.7067 292° West 169 194 1,700 -1,020 Descending Boston Center
06:18PM 42.7511 -73.7633 272° West 135 155 700 -1,020 Descending Boston Center
06:20PM 42.7333 -73.8000 299° West  Level FlightAware Approximate
06:27PM 42.7491 -73.8020 299° West  Level Estimated
06:28PM 42.7491 -73.8020 299° West  Level Estimated
06:29PM 42.7491 -73.8020 299° West  Level Estimated